sensor_id;sensor_type;location;lat;lon;timestamp;temperature;humidity
48836;DHT22;62581;47.342;7.908;2022-08-18T00:02:27;19.30;99.90
48836;DHT22;62581;47.342;7.908;2022-08-18T00:04:56;19.30;99.90
48836;DHT22;62581;47.342;7.908;2022-08-18T00:07:26;19.30;99.90
48836;DHT22;62581;47.342;7.908;2022-08-18T00:09:54;19.30;99.90
48836;DHT22;62581;47.342;7.908;2022-08-18T00:12:23;19.30;99.90
48836;DHT22;62581;47.342;7.908;2022-08-18T00:14:52;19.20;99.90
48836;DHT22;62581;47.342;7.908;2022-08-18T00:17:19;19.20;99.90
48836;DHT22;62581;47.342;7.908;2022-08-18T00:19:47;19.20;99.90
48836;DHT22;62581;47.342;7.908;2022-08-18T00:22:17;19.20;99.90
48836;DHT22;62581;47.342;7.908;2022-08-18T00:24:46;19.20;99.90
48836;DHT22;62581;47.342;7.908;2022-08-18T00:27:13;19.20;99.90
48836;DHT22;62581;47.342;7.908;2022-08-18T00:29:40;19.20;99.90
48836;DHT22;62581;47.342;7.908;2022-08-18T00:32:17;19.30;99.90
48836;DHT22;62581;47.342;7.908;2022-08-18T00:34:44;19.30;99.90
48836;DHT22;62581;47.342;7.908;2022-08-18T00:37:11;19.30;99.90
48836;DHT22;62581;47.342;7.908;2022-08-18T00:39:40;19.30;99.90
48836;DHT22;62581;47.342;7.908;2022-08-18T00:42:16;19.30;99.90
48836;DHT22;62581;47.342;7.908;2022-08-18T00:44:43;19.30;99.90
48836;DHT22;62581;47.342;7.908;2022-08-18T00:47:10;19.30;99.90
48836;DHT22;62581;47.342;7.908;2022-08-18T00:49:39;19.30;99.90
48836;DHT22;62581;47.342;7.908;2022-08-18T00:52:08;19.30;99.90
48836;DHT22;62581;47.342;7.908;2022-08-18T00:54:40;19.30;99.90
48836;DHT22;62581;47.342;7.908;2022-08-18T00:57:08;19.30;99.90
48836;DHT22;62581;47.342;7.908;2022-08-18T00:59:40;19.30;99.90
48836;DHT22;62581;47.342;7.908;2022-08-18T01:02:11;19.30;99.90
48836;DHT22;62581;47.342;7.908;2022-08-18T01:04:44;19.30;99.90
48836;DHT22;62581;47.342;7.908;2022-08-18T01:07:15;19.30;99.90
48836;DHT22;62581;47.342;7.908;2022-08-18T01:09:46;19.30;99.90
48836;DHT22;62581;47.342;7.908;2022-08-18T01:12:13;19.30;99.90
48836;DHT22;62581;47.342;7.908;2022-08-18T01:14:40;19.30;99.90
48836;DHT22;62581;47.342;7.908;2022-08-18T01:17:08;19.30;99.90
48836;DHT22;62581;47.342;7.908;2022-08-18T01:19:52;19.30;99.90
48836;DHT22;62581;47.342;7.908;2022-08-18T01:22:49;19.30;99.90
48836;DHT22;62581;47.342;7.908;2022-08-18T01:25:18;19.30;99.90
48836;DHT22;62581;47.342;7.908;2022-08-18T01:28:12;19.30;99.90
48836;DHT22;62581;47.342;7.908;2022-08-18T01:30:47;19.30;99.90
48836;DHT22;62581;47.342;7.908;2022-08-18T01:33:15;19.40;99.90
48836;DHT22;62581;47.342;7.908;2022-08-18T01:35:44;19.40;99.90
48836;DHT22;62581;47.342;7.908;2022-08-18T01:38:15;19.30;99.90
48836;DHT22;62581;47.342;7.908;2022-08-18T01:40:43;19.30;99.90
48836;DHT22;62581;47.342;7.908;2022-08-18T01:43:11;19.30;99.90
48836;DHT22;62581;47.342;7.908;2022-08-18T01:45:38;19.30;99.90
48836;DHT22;62581;47.342;7.908;2022-08-18T01:48:05;19.30;99.90
48836;DHT22;62581;47.342;7.908;2022-08-18T01:50:33;19.30;99.90
48836;DHT22;62581;47.342;7.908;2022-08-18T01:53:04;19.30;99.90
48836;DHT22;62581;47.342;7.908;2022-08-18T01:55:34;19.30;99.90
48836;DHT22;62581;47.342;7.908;2022-08-18T01:58:02;19.30;99.90
48836;DHT22;62581;47.342;7.908;2022-08-18T02:00:29;19.20;99.90
48836;DHT22;62581;47.342;7.908;2022-08-18T02:02:57;19.20;99.90
48836;DHT22;62581;47.342;7.908;2022-08-18T02:05:31;19.20;99.90
48836;DHT22;62581;47.342;7.908;2022-08-18T02:07:59;19.20;99.90
48836;DHT22;62581;47.342;7.908;2022-08-18T02:10:26;19.30;99.90
48836;DHT22;62581;47.342;7.908;2022-08-18T02:12:54;19.20;99.90
48836;DHT22;62581;47.342;7.908;2022-08-18T02:15:21;19.20;99.90
48836;DHT22;62581;47.342;7.908;2022-08-18T02:17:48;19.30;99.90
48836;DHT22;62581;47.342;7.908;2022-08-18T02:20:17;19.30;99.90
48836;DHT22;62581;47.342;7.908;2022-08-18T02:22:45;19.20;99.90
48836;DHT22;62581;47.342;7.908;2022-08-18T02:25:13;19.20;99.90
48836;DHT22;62581;47.342;7.908;2022-08-18T02:27:40;19.20;99.90
48836;DHT22;62581;47.342;7.908;2022-08-18T02:30:13;19.10;99.90
48836;DHT22;62581;47.342;7.908;2022-08-18T02:32:41;19.10;99.90
48836;DHT22;62581;47.342;7.908;2022-08-18T02:35:09;19.10;99.90
48836;DHT22;62581;47.342;7.908;2022-08-18T02:37:37;19.10;99.90
48836;DHT22;62581;47.342;7.908;2022-08-18T02:40:05;19.10;99.90
48836;DHT22;62581;47.342;7.908;2022-08-18T02:42:32;19.00;99.90
48836;DHT22;62581;47.342;7.908;2022-08-18T02:44:59;19.00;99.90
48836;DHT22;62581;47.342;7.908;2022-08-18T02:47:27;19.00;99.90
48836;DHT22;62581;47.342;7.908;2022-08-18T02:49:54;19.00;99.90
48836;DHT22;62581;47.342;7.908;2022-08-18T02:52:21;18.90;99.90
48836;DHT22;62581;47.342;7.908;2022-08-18T02:54:50;18.90;99.90
48836;DHT22;62581;47.342;7.908;2022-08-18T02:57:17;18.90;99.90
48836;DHT22;62581;47.342;7.908;2022-08-18T02:59:47;18.90;99.90
48836;DHT22;62581;47.342;7.908;2022-08-18T03:02:14;18.90;99.90
48836;DHT22;62581;47.342;7.908;2022-08-18T03:04:42;18.90;99.90
48836;DHT22;62581;47.342;7.908;2022-08-18T03:07:09;18.90;99.90
48836;DHT22;62581;47.342;7.908;2022-08-18T03:09:36;18.90;99.90
48836;DHT22;62581;47.342;7.908;2022-08-18T03:12:04;18.80;99.90
48836;DHT22;62581;47.342;7.908;2022-08-18T03:14:34;18.80;99.90
48836;DHT22;62581;47.342;7.908;2022-08-18T03:17:03;18.90;99.90
48836;DHT22;62581;47.342;7.908;2022-08-18T03:19:31;18.90;99.90
48836;DHT22;62581;47.342;7.908;2022-08-18T03:21:59;18.90;99.90
48836;DHT22;62581;47.342;7.908;2022-08-18T03:24:26;18.90;99.90
48836;DHT22;62581;47.342;7.908;2022-08-18T03:26:54;18.90;99.90
48836;DHT22;62581;47.342;7.908;2022-08-18T03:29:22;18.90;99.90
48836;DHT22;62581;47.342;7.908;2022-08-18T03:31:50;19.00;99.90
48836;DHT22;62581;47.342;7.908;2022-08-18T03:34:18;19.00;99.90
48836;DHT22;62581;47.342;7.908;2022-08-18T03:36:45;19.00;99.90
48836;DHT22;62581;47.342;7.908;2022-08-18T03:39:14;19.00;99.90
48836;DHT22;62581;47.342;7.908;2022-08-18T03:41:41;19.00;99.90
48836;DHT22;62581;47.342;7.908;2022-08-18T03:44:09;19.10;99.90
48836;DHT22;62581;47.342;7.908;2022-08-18T03:46:36;19.10;99.90
48836;DHT22;62581;47.342;7.908;2022-08-18T03:49:05;19.10;99.90
48836;DHT22;62581;47.342;7.908;2022-08-18T03:51:32;19.10;99.90
48836;DHT22;62581;47.342;7.908;2022-08-18T03:54:01;19.10;99.90
48836;DHT22;62581;47.342;7.908;2022-08-18T03:56:33;19.10;99.90
48836;DHT22;62581;47.342;7.908;2022-08-18T03:59:03;19.10;99.90
48836;DHT22;62581;47.342;7.908;2022-08-18T04:01:32;19.10;99.90
48836;DHT22;62581;47.342;7.908;2022-08-18T04:04:00;19.10;99.90
48836;DHT22;62581;47.342;7.908;2022-08-18T04:06:29;19.10;99.90
48836;DHT22;62581;47.342;7.908;2022-08-18T04:09:00;19.10;99.90
48836;DHT22;62581;47.342;7.908;2022-08-18T04:11:27;19.10;99.90
48836;DHT22;62581;47.342;7.908;2022-08-18T04:13:58;19.10;99.90
48836;DHT22;62581;47.342;7.908;2022-08-18T04:16:25;19.20;99.90
48836;DHT22;62581;47.342;7.908;2022-08-18T04:18:52;19.10;99.90
48836;DHT22;62581;47.342;7.908;2022-08-18T04:21:20;19.10;99.90
48836;DHT22;62581;47.342;7.908;2022-08-18T04:23:48;19.10;99.90
48836;DHT22;62581;47.342;7.908;2022-08-18T04:26:15;19.10;99.90
48836;DHT22;62581;47.342;7.908;2022-08-18T04:28:43;19.20;99.90
48836;DHT22;62581;47.342;7.908;2022-08-18T04:31:13;19.10;99.90
48836;DHT22;62581;47.342;7.908;2022-08-18T04:33:40;19.20;99.90
48836;DHT22;62581;47.342;7.908;2022-08-18T04:36:09;19.20;99.90
48836;DHT22;62581;47.342;7.908;2022-08-18T04:38:37;19.10;99.90
48836;DHT22;62581;47.342;7.908;2022-08-18T04:41:04;19.10;99.90
48836;DHT22;62581;47.342;7.908;2022-08-18T04:43:32;19.00;99.90
48836;DHT22;62581;47.342;7.908;2022-08-18T04:45:59;19.10;99.90
48836;DHT22;62581;47.342;7.908;2022-08-18T04:48:30;19.10;99.90
48836;DHT22;62581;47.342;7.908;2022-08-18T04:51:06;19.00;99.90
48836;DHT22;62581;47.342;7.908;2022-08-18T04:53:34;19.00;99.90
48836;DHT22;62581;47.342;7.908;2022-08-18T04:56:14;18.90;99.90
48836;DHT22;62581;47.342;7.908;2022-08-18T04:58:44;18.90;99.90
48836;DHT22;62581;47.342;7.908;2022-08-18T05:01:17;19.00;99.90
48836;DHT22;62581;47.342;7.908;2022-08-18T05:03:46;18.90;99.90
48836;DHT22;62581;47.342;7.908;2022-08-18T05:06:14;19.00;99.90
48836;DHT22;62581;47.342;7.908;2022-08-18T05:08:41;19.00;99.90
48836;DHT22;62581;47.342;7.908;2022-08-18T05:11:08;19.00;99.90
48836;DHT22;62581;47.342;7.908;2022-08-18T05:13:35;19.00;99.90
48836;DHT22;62581;47.342;7.908;2022-08-18T05:16:03;19.00;99.90
48836;DHT22;62581;47.342;7.908;2022-08-18T05:18:30;19.00;99.90
48836;DHT22;62581;47.342;7.908;2022-08-18T05:20:59;19.00;99.90
48836;DHT22;62581;47.342;7.908;2022-08-18T05:23:26;19.00;99.90
48836;DHT22;62581;47.342;7.908;2022-08-18T05:25:56;19.00;99.90
48836;DHT22;62581;47.342;7.908;2022-08-18T05:28:23;19.00;99.90
48836;DHT22;62581;47.342;7.908;2022-08-18T05:30:51;19.00;99.90
48836;DHT22;62581;47.342;7.908;2022-08-18T05:33:18;19.00;99.90
48836;DHT22;62581;47.342;7.908;2022-08-18T05:35:49;19.00;99.90
48836;DHT22;62581;47.342;7.908;2022-08-18T05:38:28;19.10;99.90
48836;DHT22;62581;47.342;7.908;2022-08-18T05:41:07;19.10;99.90
48836;DHT22;62581;47.342;7.908;2022-08-18T05:43:36;19.10;99.90
48836;DHT22;62581;47.342;7.908;2022-08-18T05:46:05;19.10;99.90
48836;DHT22;62581;47.342;7.908;2022-08-18T05:48:33;19.10;99.90
48836;DHT22;62581;47.342;7.908;2022-08-18T05:51:13;19.00;99.90
48836;DHT22;62581;47.342;7.908;2022-08-18T05:53:44;19.00;99.90
48836;DHT22;62581;47.342;7.908;2022-08-18T05:56:31;19.20;99.90
48836;DHT22;62581;47.342;7.908;2022-08-18T05:59:19;19.20;99.90
48836;DHT22;62581;47.342;7.908;2022-08-18T06:01:52;19.40;99.90
48836;DHT22;62581;47.342;7.908;2022-08-18T06:04:34;19.50;99.90
48836;DHT22;62581;47.342;7.908;2022-08-18T06:07:08;19.50;99.90
48836;DHT22;62581;47.342;7.908;2022-08-18T06:09:42;19.50;99.90
48836;DHT22;62581;47.342;7.908;2022-08-18T06:15:03;19.60;99.90
48836;DHT22;62581;47.342;7.908;2022-08-18T06:20:28;19.70;99.90
48836;DHT22;62581;47.342;7.908;2022-08-18T06:23:04;19.70;99.90
48836;DHT22;62581;47.342;7.908;2022-08-18T06:25:47;19.80;99.90
48836;DHT22;62581;47.342;7.908;2022-08-18T06:28:16;19.80;99.90
48836;DHT22;62581;47.342;7.908;2022-08-18T06:30:58;19.80;99.90
48836;DHT22;62581;47.342;7.908;2022-08-18T06:33:39;19.80;99.90
48836;DHT22;62581;47.342;7.908;2022-08-18T06:36:12;19.80;99.90
48836;DHT22;62581;47.342;7.908;2022-08-18T06:38:55;19.80;99.90
48836;DHT22;62581;47.342;7.908;2022-08-18T06:41:35;19.90;99.90
48836;DHT22;62581;47.342;7.908;2022-08-18T06:44:07;19.90;99.90
48836;DHT22;62581;47.342;7.908;2022-08-18T06:46:40;20.00;99.90
48836;DHT22;62581;47.342;7.908;2022-08-18T06:49:09;20.10;99.90
48836;DHT22;62581;47.342;7.908;2022-08-18T06:51:37;20.20;99.90
48836;DHT22;62581;47.342;7.908;2022-08-18T06:54:06;20.30;99.90
48836;DHT22;62581;47.342;7.908;2022-08-18T06:56:46;20.50;99.90
48836;DHT22;62581;47.342;7.908;2022-08-18T06:59:23;20.70;99.90
48836;DHT22;62581;47.342;7.908;2022-08-18T07:01:54;20.90;99.90
48836;DHT22;62581;47.342;7.908;2022-08-18T07:04:41;21.00;99.90
48836;DHT22;62581;47.342;7.908;2022-08-18T07:07:14;21.10;99.90
48836;DHT22;62581;47.342;7.908;2022-08-18T07:09:42;21.20;99.90
48836;DHT22;62581;47.342;7.908;2022-08-18T07:12:18;21.20;99.90
48836;DHT22;62581;47.342;7.908;2022-08-18T07:14:48;21.10;99.90
48836;DHT22;62581;47.342;7.908;2022-08-18T07:17:21;21.10;99.90
48836;DHT22;62581;47.342;7.908;2022-08-18T07:19:57;21.00;99.90
48836;DHT22;62581;47.342;7.908;2022-08-18T07:22:27;21.00;99.90
48836;DHT22;62581;47.342;7.908;2022-08-18T07:24:57;21.00;99.90
48836;DHT22;62581;47.342;7.908;2022-08-18T07:27:45;21.10;99.90
48836;DHT22;62581;47.342;7.908;2022-08-18T07:30:26;21.30;99.90
48836;DHT22;62581;47.342;7.908;2022-08-18T07:32:59;21.40;99.90
48836;DHT22;62581;47.342;7.908;2022-08-18T07:35:35;21.50;99.90
48836;DHT22;62581;47.342;7.908;2022-08-18T07:38:09;21.70;99.90
48836;DHT22;62581;47.342;7.908;2022-08-18T07:40:44;22.00;99.90
48836;DHT22;62581;47.342;7.908;2022-08-18T07:43:18;22.30;99.90
48836;DHT22;62581;47.342;7.908;2022-08-18T07:45:47;22.40;99.90
48836;DHT22;62581;47.342;7.908;2022-08-18T07:48:15;22.60;99.90
48836;DHT22;62581;47.342;7.908;2022-08-18T07:50:59;22.60;99.90
48836;DHT22;62581;47.342;7.908;2022-08-18T07:53:35;22.70;99.90
48836;DHT22;62581;47.342;7.908;2022-08-18T07:56:06;22.70;99.90
48836;DHT22;62581;47.342;7.908;2022-08-18T07:58:45;22.80;99.90
48836;DHT22;62581;47.342;7.908;2022-08-18T08:01:22;22.80;99.90
48836;DHT22;62581;47.342;7.908;2022-08-18T08:03:58;22.90;99.90
48836;DHT22;62581;47.342;7.908;2022-08-18T08:06:31;22.90;99.90
48836;DHT22;62581;47.342;7.908;2022-08-18T08:09:03;22.70;99.90
48836;DHT22;62581;47.342;7.908;2022-08-18T08:11:40;22.60;99.90
48836;DHT22;62581;47.342;7.908;2022-08-18T08:14:21;22.40;99.90
48836;DHT22;62581;47.342;7.908;2022-08-18T08:17:02;22.30;99.90
48836;DHT22;62581;47.342;7.908;2022-08-18T08:19:50;22.20;99.90
48836;DHT22;62581;47.342;7.908;2022-08-18T08:22:21;22.20;99.90
48836;DHT22;62581;47.342;7.908;2022-08-18T08:24:57;22.10;99.90
48836;DHT22;62581;47.342;7.908;2022-08-18T08:27:35;22.10;99.90
48836;DHT22;62581;47.342;7.908;2022-08-18T08:30:07;22.10;99.90
48836;DHT22;62581;47.342;7.908;2022-08-18T08:32:41;22.30;99.90
48836;DHT22;62581;47.342;7.908;2022-08-18T08:35:12;22.50;99.90
48836;DHT22;62581;47.342;7.908;2022-08-18T08:37:42;22.70;99.90
48836;DHT22;62581;47.342;7.908;2022-08-18T08:40:16;22.80;99.90
48836;DHT22;62581;47.342;7.908;2022-08-18T08:42:46;22.80;99.90
48836;DHT22;62581;47.342;7.908;2022-08-18T08:45:22;22.80;99.90
48836;DHT22;62581;47.342;7.908;2022-08-18T08:47:56;22.80;99.90
48836;DHT22;62581;47.342;7.908;2022-08-18T08:50:28;22.80;99.90
48836;DHT22;62581;47.342;7.908;2022-08-18T08:53:01;22.70;99.90
48836;DHT22;62581;47.342;7.908;2022-08-18T08:55:31;22.70;99.90
48836;DHT22;62581;47.342;7.908;2022-08-18T08:58:11;22.70;99.90
48836;DHT22;62581;47.342;7.908;2022-08-18T09:00:43;22.70;99.90
48836;DHT22;62581;47.342;7.908;2022-08-18T09:03:22;22.60;99.90
48836;DHT22;62581;47.342;7.908;2022-08-18T09:05:55;22.70;99.90
48836;DHT22;62581;47.342;7.908;2022-08-18T09:08:47;22.60;99.90
48836;DHT22;62581;47.342;7.908;2022-08-18T09:11:28;22.60;99.90
48836;DHT22;62581;47.342;7.908;2022-08-18T09:14:13;22.50;99.90
48836;DHT22;62581;47.342;7.908;2022-08-18T09:16:51;22.50;99.90
48836;DHT22;62581;47.342;7.908;2022-08-18T09:19:28;22.50;99.90
48836;DHT22;62581;47.342;7.908;2022-08-18T09:21:59;22.50;99.90
48836;DHT22;62581;47.342;7.908;2022-08-18T09:24:37;22.60;99.90
48836;DHT22;62581;47.342;7.908;2022-08-18T09:27:22;22.70;99.90
48836;DHT22;62581;47.342;7.908;2022-08-18T09:29:54;22.90;99.90
48836;DHT22;62581;47.342;7.908;2022-08-18T09:35:32;23.40;99.90
48836;DHT22;62581;47.342;7.908;2022-08-18T09:38:09;23.70;99.90
48836;DHT22;62581;47.342;7.908;2022-08-18T09:40:59;23.90;99.90
48836;DHT22;62581;47.342;7.908;2022-08-18T09:43:59;24.30;99.90
48836;DHT22;62581;47.342;7.908;2022-08-18T09:46:56;24.60;99.90
48836;DHT22;62581;47.342;7.908;2022-08-18T09:49:46;25.00;99.90
48836;DHT22;62581;47.342;7.908;2022-08-18T09:55:41;25.40;99.90
48836;DHT22;62581;47.342;7.908;2022-08-18T09:58:37;25.50;99.90
48836;DHT22;62581;47.342;7.908;2022-08-18T10:01:38;25.50;99.90
48836;DHT22;62581;47.342;7.908;2022-08-18T10:04:29;25.50;99.90
48836;DHT22;62581;47.342;7.908;2022-08-18T10:07:26;25.50;99.90
48836;DHT22;62581;47.342;7.908;2022-08-18T10:10:08;25.60;99.90
48836;DHT22;62581;47.342;7.908;2022-08-18T10:12:51;25.50;99.90
48836;DHT22;62581;47.342;7.908;2022-08-18T10:15:34;25.70;99.90
48836;DHT22;62581;47.342;7.908;2022-08-18T10:18:23;25.80;99.90
48836;DHT22;62581;47.342;7.908;2022-08-18T10:21:01;26.10;99.90
48836;DHT22;62581;47.342;7.908;2022-08-18T10:23:52;26.20;99.90
48836;DHT22;62581;47.342;7.908;2022-08-18T10:26:58;26.30;99.90
48836;DHT22;62581;47.342;7.908;2022-08-18T10:29:57;26.20;99.90
48836;DHT22;62581;47.342;7.908;2022-08-18T10:32:40;26.10;99.90
48836;DHT22;62581;47.342;7.908;2022-08-18T10:38:35;25.60;99.90
48836;DHT22;62581;47.342;7.908;2022-08-18T10:41:07;25.20;99.90
48836;DHT22;62581;47.342;7.908;2022-08-18T10:43:40;25.30;99.90
48836;DHT22;62581;47.342;7.908;2022-08-18T10:46:15;25.70;99.90
48836;DHT22;62581;47.342;7.908;2022-08-18T10:49:01;26.10;99.90
48836;DHT22;62581;47.342;7.908;2022-08-18T10:51:41;26.40;99.90
48836;DHT22;62581;47.342;7.908;2022-08-18T10:54:17;26.50;99.90
48836;DHT22;62581;47.342;7.908;2022-08-18T10:56:53;26.30;99.90
48836;DHT22;62581;47.342;7.908;2022-08-18T10:59:27;26.40;99.90
48836;DHT22;62581;47.342;7.908;2022-08-18T11:02:15;26.70;99.90
48836;DHT22;62581;47.342;7.908;2022-08-18T11:04:50;27.10;99.70
48836;DHT22;62581;47.342;7.908;2022-08-18T11:07:20;27.50;99.20
48836;DHT22;62581;47.342;7.908;2022-08-18T11:09:48;27.80;99.10
48836;DHT22;62581;47.342;7.908;2022-08-18T11:12:37;28.00;98.70
48836;DHT22;62581;47.342;7.908;2022-08-18T11:15:16;28.20;98.30
48836;DHT22;62581;47.342;7.908;2022-08-18T11:17:55;28.20;98.00
48836;DHT22;62581;47.342;7.908;2022-08-18T11:20:34;28.20;97.80
48836;DHT22;62581;47.342;7.908;2022-08-18T11:23:02;28.30;97.40
48836;DHT22;62581;47.342;7.908;2022-08-18T11:25:32;28.30;97.20
48836;DHT22;62581;47.342;7.908;2022-08-18T11:28:01;28.20;97.10
48836;DHT22;62581;47.342;7.908;2022-08-18T11:30:32;28.10;97.10
48836;DHT22;62581;47.342;7.908;2022-08-18T11:33:02;28.00;97.30
48836;DHT22;62581;47.342;7.908;2022-08-18T11:35:31;27.90;97.40
48836;DHT22;62581;47.342;7.908;2022-08-18T11:38:01;27.80;97.50
48836;DHT22;62581;47.342;7.908;2022-08-18T11:40:35;27.70;97.40
48836;DHT22;62581;47.342;7.908;2022-08-18T11:43:10;27.60;98.00
48836;DHT22;62581;47.342;7.908;2022-08-18T11:45:50;27.50;97.40
48836;DHT22;62581;47.342;7.908;2022-08-18T11:48:21;27.10;97.60
48836;DHT22;62581;47.342;7.908;2022-08-18T11:51:08;27.00;97.80
48836;DHT22;62581;47.342;7.908;2022-08-18T11:53:40;27.20;97.70
48836;DHT22;62581;47.342;7.908;2022-08-18T11:56:16;27.40;97.50
48836;DHT22;62581;47.342;7.908;2022-08-18T11:58:46;27.60;97.40
48836;DHT22;62581;47.342;7.908;2022-08-18T12:01:32;27.40;96.40
48836;DHT22;62581;47.342;7.908;2022-08-18T12:04:08;27.20;96.90
48836;DHT22;62581;47.342;7.908;2022-08-18T12:06:37;27.10;97.50
48836;DHT22;62581;47.342;7.908;2022-08-18T12:09:13;26.90;98.00
48836;DHT22;62581;47.342;7.908;2022-08-18T12:11:50;26.80;98.30
48836;DHT22;62581;47.342;7.908;2022-08-18T12:14:21;26.70;98.50
48836;DHT22;62581;47.342;7.908;2022-08-18T12:16:49;26.70;98.60
48836;DHT22;62581;47.342;7.908;2022-08-18T12:19:16;26.60;98.70
48836;DHT22;62581;47.342;7.908;2022-08-18T12:21:44;26.40;99.20
48836;DHT22;62581;47.342;7.908;2022-08-18T12:24:21;26.30;99.80
48836;DHT22;62581;47.342;7.908;2022-08-18T12:26:49;26.20;99.70
48836;DHT22;62581;47.342;7.908;2022-08-18T12:29:16;26.00;99.90
48836;DHT22;62581;47.342;7.908;2022-08-18T12:31:46;25.90;99.90
48836;DHT22;62581;47.342;7.908;2022-08-18T12:34:15;25.80;99.90
48836;DHT22;62581;47.342;7.908;2022-08-18T12:36:42;25.80;99.90
48836;DHT22;62581;47.342;7.908;2022-08-18T12:39:09;25.80;99.90
48836;DHT22;62581;47.342;7.908;2022-08-18T12:41:37;25.80;99.90
48836;DHT22;62581;47.342;7.908;2022-08-18T12:44:04;25.90;99.90
48836;DHT22;62581;47.342;7.908;2022-08-18T12:46:31;26.00;99.90
48836;DHT22;62581;47.342;7.908;2022-08-18T12:49:00;26.00;99.90
48836;DHT22;62581;47.342;7.908;2022-08-18T12:51:27;26.10;99.90
48836;DHT22;62581;47.342;7.908;2022-08-18T12:53:54;26.00;99.90
48836;DHT22;62581;47.342;7.908;2022-08-18T12:56:24;26.00;99.90
48836;DHT22;62581;47.342;7.908;2022-08-18T12:58:52;26.00;99.90
48836;DHT22;62581;47.342;7.908;2022-08-18T13:01:20;25.80;99.90
48836;DHT22;62581;47.342;7.908;2022-08-18T13:03:47;25.70;99.90
48836;DHT22;62581;47.342;7.908;2022-08-18T13:06:16;25.40;99.90
48836;DHT22;62581;47.342;7.908;2022-08-18T13:08:43;25.40;99.90
48836;DHT22;62581;47.342;7.908;2022-08-18T13:11:10;25.50;99.90
48836;DHT22;62581;47.342;7.908;2022-08-18T13:13:38;25.50;99.90
48836;DHT22;62581;47.342;7.908;2022-08-18T13:16:05;25.70;99.90
48836;DHT22;62581;47.342;7.908;2022-08-18T13:18:33;25.70;99.90
48836;DHT22;62581;47.342;7.908;2022-08-18T13:21:01;25.80;99.90
48836;DHT22;62581;47.342;7.908;2022-08-18T13:23:30;25.80;99.90
48836;DHT22;62581;47.342;7.908;2022-08-18T13:25:58;25.90;99.90
48836;DHT22;62581;47.342;7.908;2022-08-18T13:28:25;25.70;99.90
48836;DHT22;62581;47.342;7.908;2022-08-18T13:30:52;25.30;99.90
48836;DHT22;62581;47.342;7.908;2022-08-18T13:33:19;25.00;99.90
48836;DHT22;62581;47.342;7.908;2022-08-18T13:35:47;24.60;99.90
48836;DHT22;62581;47.342;7.908;2022-08-18T13:38:18;24.70;99.90
48836;DHT22;62581;47.342;7.908;2022-08-18T13:40:49;24.80;99.90
48836;DHT22;62581;47.342;7.908;2022-08-18T13:43:18;24.90;99.90
48836;DHT22;62581;47.342;7.908;2022-08-18T13:45:46;25.20;99.90
48836;DHT22;62581;47.342;7.908;2022-08-18T13:48:14;25.30;99.90
48836;DHT22;62581;47.342;7.908;2022-08-18T13:50:42;25.40;99.90
48836;DHT22;62581;47.342;7.908;2022-08-18T13:53:12;25.60;99.90
48836;DHT22;62581;47.342;7.908;2022-08-18T13:55:40;25.70;99.90
48836;DHT22;62581;47.342;7.908;2022-08-18T13:58:09;25.90;99.90
48836;DHT22;62581;47.342;7.908;2022-08-18T14:00:37;26.00;99.90
48836;DHT22;62581;47.342;7.908;2022-08-18T14:03:06;25.80;99.90
48836;DHT22;62581;47.342;7.908;2022-08-18T14:05:34;25.70;99.90
48836;DHT22;62581;47.342;7.908;2022-08-18T14:08:01;25.60;99.90
48836;DHT22;62581;47.342;7.908;2022-08-18T14:10:29;25.50;99.90
48836;DHT22;62581;47.342;7.908;2022-08-18T14:12:59;25.50;99.90
48836;DHT22;62581;47.342;7.908;2022-08-18T14:15:28;25.50;99.90
48836;DHT22;62581;47.342;7.908;2022-08-18T14:17:56;25.50;99.90
48836;DHT22;62581;47.342;7.908;2022-08-18T14:20:23;25.50;99.90
48836;DHT22;62581;47.342;7.908;2022-08-18T14:23:07;25.40;99.90
48836;DHT22;62581;47.342;7.908;2022-08-18T14:25:51;25.00;99.90
48836;DHT22;62581;47.342;7.908;2022-08-18T14:28:35;24.80;99.90
48836;DHT22;62581;47.342;7.908;2022-08-18T14:31:04;24.80;99.90
48836;DHT22;62581;47.342;7.908;2022-08-18T14:33:31;24.60;99.90
48836;DHT22;62581;47.342;7.908;2022-08-18T14:36:00;24.50;99.90
48836;DHT22;62581;47.342;7.908;2022-08-18T14:38:28;24.50;99.90
48836;DHT22;62581;47.342;7.908;2022-08-18T14:40:55;24.40;99.90
48836;DHT22;62581;47.342;7.908;2022-08-18T14:43:22;24.40;99.90
48836;DHT22;62581;47.342;7.908;2022-08-18T14:45:49;24.30;99.90
48836;DHT22;62581;47.342;7.908;2022-08-18T14:48:20;24.20;99.90
48836;DHT22;62581;47.342;7.908;2022-08-18T14:50:49;24.20;99.90
48836;DHT22;62581;47.342;7.908;2022-08-18T14:53:19;24.20;99.90
48836;DHT22;62581;47.342;7.908;2022-08-18T14:55:46;24.20;99.90
48836;DHT22;62581;47.342;7.908;2022-08-18T14:58:16;24.20;99.90
48836;DHT22;62581;47.342;7.908;2022-08-18T15:00:43;24.30;99.90
48836;DHT22;62581;47.342;7.908;2022-08-18T15:03:10;24.20;99.90
48836;DHT22;62581;47.342;7.908;2022-08-18T15:05:39;24.20;99.90
48836;DHT22;62581;47.342;7.908;2022-08-18T15:08:06;24.10;99.90
48836;DHT22;62581;47.342;7.908;2022-08-18T15:10:33;24.00;99.90
48836;DHT22;62581;47.342;7.908;2022-08-18T15:13:00;23.90;99.90
48836;DHT22;62581;47.342;7.908;2022-08-18T15:15:28;23.80;99.90
48836;DHT22;62581;47.342;7.908;2022-08-18T15:17:57;23.80;99.90
48836;DHT22;62581;47.342;7.908;2022-08-18T15:20:26;23.70;99.90
48836;DHT22;62581;47.342;7.908;2022-08-18T15:22:58;23.80;99.90
48836;DHT22;62581;47.342;7.908;2022-08-18T15:25:43;23.70;99.90
48836;DHT22;62581;47.342;7.908;2022-08-18T15:28:12;23.70;99.90
48836;DHT22;62581;47.342;7.908;2022-08-18T15:30:42;23.60;99.90
48836;DHT22;62581;47.342;7.908;2022-08-18T15:33:10;23.60;99.90
48836;DHT22;62581;47.342;7.908;2022-08-18T15:35:39;23.50;99.90
48836;DHT22;62581;47.342;7.908;2022-08-18T15:38:07;23.50;99.90
48836;DHT22;62581;47.342;7.908;2022-08-18T15:40:38;23.40;99.90
48836;DHT22;62581;47.342;7.908;2022-08-18T15:43:12;23.30;99.90
48836;DHT22;62581;47.342;7.908;2022-08-18T15:45:41;23.30;99.90
48836;DHT22;62581;47.342;7.908;2022-08-18T15:48:12;23.20;99.90
48836;DHT22;62581;47.342;7.908;2022-08-18T15:50:39;23.10;99.90
48836;DHT22;62581;47.342;7.908;2022-08-18T15:53:10;23.10;99.90
48836;DHT22;62581;47.342;7.908;2022-08-18T15:55:38;23.00;99.90
48836;DHT22;62581;47.342;7.908;2022-08-18T15:58:06;23.10;99.90
48836;DHT22;62581;47.342;7.908;2022-08-18T16:00:33;23.10;99.90
48836;DHT22;62581;47.342;7.908;2022-08-18T16:03:05;23.10;99.90
48836;DHT22;62581;47.342;7.908;2022-08-18T16:05:36;23.10;99.90
48836;DHT22;62581;47.342;7.908;2022-08-18T16:08:08;23.20;99.90
48836;DHT22;62581;47.342;7.908;2022-08-18T16:10:37;23.20;99.90
48836;DHT22;62581;47.342;7.908;2022-08-18T16:13:04;23.30;99.90
48836;DHT22;62581;47.342;7.908;2022-08-18T16:15:34;23.30;99.90
48836;DHT22;62581;47.342;7.908;2022-08-18T16:18:01;23.30;99.90